createdAt,value
2019-02-07T00:01:09.452Z,98825.59
2019-02-07T00:03:42.016Z,98820.84
2019-02-07T00:06:14.293Z,98809.28
2019-02-07T00:08:47.049Z,98808.59
2019-02-07T00:11:19.394Z,98798.33
2019-02-07T00:13:52.035Z,98793.19
2019-02-07T00:16:23.407Z,98785.28
2019-02-07T00:18:55.755Z,98783.17
2019-02-07T00:21:28.499Z,98773.39
2019-02-07T00:24:01.105Z,98770.84
2019-02-07T00:26:33.584Z,98759.61
2019-02-07T00:29:06.864Z,98761.44
2019-02-07T00:31:39.239Z,98758.08
2019-02-07T00:34:11.727Z,98752.85
2019-02-07T00:36:44.168Z,98748.09
2019-02-07T00:39:16.558Z,98749.39
2019-02-07T00:41:49.358Z,98737.69
2019-02-07T00:44:21.705Z,98745.03
2019-02-07T00:46:54.161Z,98741.48
2019-02-07T00:49:26.873Z,98735.44
2019-02-07T00:51:59.610Z,98735.05
2019-02-07T00:54:31.963Z,98732.98
2019-02-07T00:57:04.664Z,98727.86
2019-02-07T00:59:37.071Z,98718.79
2019-02-07T01:02:10.550Z,98715.95
2019-02-07T01:04:42.821Z,98707.08
2019-02-07T01:07:15.694Z,98696.48
2019-02-07T01:09:49.686Z,98694.18
2019-02-07T01:12:21.924Z,98687.31
2019-02-07T01:15:01.660Z,98686.12
2019-02-07T01:17:28.867Z,98699.25
2019-02-07T01:20:01.401Z,98701.84
2019-02-07T01:22:33.843Z,98691.58
2019-02-07T01:25:09.185Z,98683.42
2019-02-07T01:27:41.594Z,98678.64
2019-02-07T01:30:17.288Z,98671.45
2019-02-07T01:32:49.410Z,98673.16
2019-02-07T01:35:21.923Z,98672.70
2019-02-07T01:37:54.819Z,98666.78
2019-02-07T01:40:27.199Z,98658.60
2019-02-07T01:42:59.565Z,98651.78
2019-02-07T01:45:31.982Z,98644.07
2019-02-07T01:48:04.640Z,98635.50
2019-02-07T01:50:37.077Z,98631.17
2019-02-07T01:53:10.053Z,98628.77
2019-02-07T01:55:41.421Z,98628.33
2019-02-07T01:58:15.230Z,98625.00
2019-02-07T02:00:47.558Z,98625.72
2019-02-07T02:03:20.212Z,98621.17
2019-02-07T02:05:52.555Z,98615.41
2019-02-07T02:08:24.651Z,98621.20
2019-02-07T02:10:57.099Z,98625.08
2019-02-07T02:13:30.797Z,98617.84
2019-02-07T02:16:03.058Z,98616.78
2019-02-07T02:18:35.433Z,98615.09
2019-02-07T02:21:08.111Z,98609.53
2019-02-07T02:23:40.750Z,98600.75
2019-02-07T02:26:13.961Z,98596.56
2019-02-07T02:28:46.655Z,98586.59
2019-02-07T02:31:19.146Z,98572.73
2019-02-07T02:33:51.514Z,98575.68
2019-02-07T02:36:24.260Z,98574.93
2019-02-07T02:38:56.700Z,98568.68
2019-02-07T02:41:29.139Z,98566.45
2019-02-07T02:44:01.510Z,98565.55
2019-02-07T02:46:33.853Z,98562.31
2019-02-07T02:49:06.524Z,98563.45
2019-02-07T02:51:38.863Z,98564.20
2019-02-07T02:54:29.902Z,98564.97
2019-02-07T02:57:02.295Z,98560.70
2019-02-07T02:59:35.146Z,98554.86
2019-02-07T03:02:25.177Z,98547.48
2019-02-07T03:05:14.742Z,98545.33
2019-02-07T03:08:04.586Z,98542.29
2019-02-07T03:10:55.553Z,98531.55
2019-02-07T03:14:01.629Z,98523.88
2019-02-07T03:17:01.813Z,98517.45
2019-02-07T03:19:54.045Z,98510.98
2019-02-07T03:22:52.666Z,98511.09
2019-02-07T03:25:42.349Z,98504.50
2019-02-07T03:28:29.852Z,98508.44
2019-02-07T03:31:19.652Z,98512.82
2019-02-07T03:34:09.508Z,98509.05
2019-02-07T03:36:57.231Z,98514.86
2019-02-07T03:39:55.656Z,98530.63
2019-02-07T03:42:45.288Z,98527.92
2019-02-07T03:45:35.206Z,98514.86
2019-02-07T03:48:26.191Z,98500.16
2019-02-07T03:51:17.116Z,98488.77
2019-02-07T03:54:07.097Z,98473.48
2019-02-07T03:56:57.191Z,98466.25
2019-02-07T03:59:48.137Z,98467.48
2019-02-07T04:02:48.170Z,98478.08
2019-02-07T04:05:54.479Z,98486.67
2019-02-07T04:08:44.962Z,98485.16
2019-02-07T04:11:34.762Z,98483.63
2019-02-07T04:14:25.474Z,98473.81
2019-02-07T04:17:16.410Z,98471.43
2019-02-07T04:20:07.364Z,98471.13
2019-02-07T04:22:55.681Z,98472.16
2019-02-07T04:26:02.070Z,98478.78
2019-02-07T04:28:43.618Z,98478.88
2019-02-07T04:31:37.760Z,98478.71
2019-02-07T04:34:28.817Z,98485.73
2019-02-07T04:37:19.838Z,98468.11
2019-02-07T04:40:17.224Z,98470.58
2019-02-07T04:43:11.325Z,98465.22
2019-02-07T04:45:54.202Z,98464.45
2019-02-07T04:48:48.604Z,98453.58
2019-02-07T04:51:46.003Z,98454.82
2019-02-07T04:54:40.360Z,98448.05
2019-02-07T04:57:34.329Z,98440.83
2019-02-07T05:00:44.562Z,98430.66
2019-02-07T05:03:40.311Z,98431.01
2019-02-07T05:06:31.262Z,98427.36
2019-02-07T05:09:37.592Z,98441.62
2019-02-07T05:12:34.935Z,98436.70
2019-02-07T05:15:21.651Z,98431.21
2019-02-07T05:18:11.874Z,98425.19
2019-02-07T05:21:03.175Z,98431.34
2019-02-07T05:24:00.005Z,98428.38
2019-02-07T05:27:06.232Z,98423.06
2019-02-07T05:29:51.315Z,98416.95
2019-02-07T05:32:37.808Z,98402.63
2019-02-07T05:35:39.988Z,98386.02
2019-02-07T05:38:36.963Z,98375.33
2019-02-07T05:41:28.067Z,98371.82
2019-02-07T05:44:22.203Z,98387.92
2019-02-07T05:47:38.042Z,98397.32
2019-02-07T05:50:30.348Z,98403.75
2019-02-07T05:53:20.249Z,98385.46
2019-02-07T05:56:11.216Z,98376.00
2019-02-07T05:59:04.957Z,98367.94
2019-02-07T06:01:48.202Z,98385.34
2019-02-07T06:04:42.377Z,98391.03
2019-02-07T06:07:34.502Z,98382.93
2019-02-07T06:10:27.110Z,98383.91
2019-02-07T06:13:36.468Z,98369.39
2019-02-07T06:16:33.348Z,98377.68
2019-02-07T06:19:15.304Z,98388.97
2019-02-07T06:22:12.715Z,98393.63
2019-02-07T06:25:02.814Z,98397.14
2019-02-07T06:27:56.619Z,98396.03
2019-02-07T06:30:43.419Z,98393.98
2019-02-07T06:33:34.266Z,98395.11
2019-02-07T06:36:25.647Z,98394.42
2019-02-07T06:39:12.974Z,98410.18
2019-02-07T06:42:03.061Z,98412.46
2019-02-07T06:45:13.325Z,98419.52
2019-02-07T06:48:04.372Z,98410.11
2019-02-07T06:50:58.019Z,98410.30
2019-02-07T06:53:47.809Z,98403.62
2019-02-07T06:56:48.239Z,98407.45
2019-02-07T06:59:57.589Z,98414.38
2019-02-07T07:02:47.435Z,98425.02
2019-02-07T07:05:37.128Z,98424.89
2019-02-07T07:08:46.790Z,98434.26
2019-02-07T07:11:43.990Z,98420.42
2019-02-07T07:14:34.922Z,98404.92
2019-02-07T07:17:25.891Z,98398.69
2019-02-07T07:20:21.997Z,98418.09
2019-02-07T07:23:22.469Z,98411.29
2019-02-07T07:26:12.647Z,98395.09
2019-02-07T07:29:09.907Z,98404.55
2019-02-07T07:32:16.359Z,98404.55
2019-02-07T07:35:01.849Z,98394.96
2019-02-07T07:37:58.418Z,98385.61
2019-02-07T07:41:04.563Z,98381.36
2019-02-07T07:43:54.596Z,98385.38
2019-02-07T07:46:44.794Z,98377.02
2019-02-07T07:49:32.377Z,98357.84
2019-02-07T07:52:39.723Z,98356.64
2019-02-07T07:55:33.429Z,98365.86
2019-02-07T07:58:11.965Z,98381.15
2019-02-07T08:01:15.564Z,98390.98
2019-02-07T08:04:19.056Z,98384.42
2019-02-07T08:07:16.605Z,98375.52
2019-02-07T08:10:07.412Z,98378.56
2019-02-07T08:12:57.605Z,98379.25
2019-02-07T08:15:57.864Z,98376.20
2019-02-07T08:18:55.420Z,98369.84
2019-02-07T08:21:35.860Z,98374.02
2019-02-07T08:24:28.530Z,98372.42
2019-02-07T08:27:19.754Z,98368.08
2019-02-07T08:30:09.401Z,98367.49
2019-02-07T08:32:59.441Z,98367.88
2019-02-07T08:35:49.748Z,98368.49
2019-02-07T08:38:39.691Z,98357.04
2019-02-07T08:41:30.677Z,98360.35
2019-02-07T08:44:24.386Z,98365.41
2019-02-07T08:47:15.309Z,98369.89
2019-02-07T08:50:06.865Z,98360.45
2019-02-07T08:53:06.888Z,98351.29
2019-02-07T08:56:07.360Z,98343.07
2019-02-07T08:59:08.051Z,98333.27
2019-02-07T09:02:11.385Z,98334.99
2019-02-07T09:05:15.891Z,98331.82
2019-02-07T09:08:06.903Z,98329.02
2019-02-07T09:11:04.308Z,98319.20
2019-02-07T09:14:07.793Z,98330.09
2019-02-07T09:17:00.172Z,98329.53
2019-02-07T09:19:54.756Z,98329.53
2019-02-07T09:22:51.909Z,98331.97
2019-02-07T09:25:45.858Z,98326.28
2019-02-07T09:28:35.919Z,98324.13
2019-02-07T09:31:39.301Z,98323.09
2019-02-07T09:34:30.637Z,98325.98
2019-02-07T09:37:27.589Z,98317.41
2019-02-07T09:40:32.073Z,98316.44
2019-02-07T09:43:32.075Z,98332.27
2019-02-07T09:46:25.487Z,98324.31
2019-02-07T09:49:15.790Z,98321.80
2019-02-07T09:51:56.037Z,98315.34
2019-02-07T09:54:45.942Z,98317.56
2019-02-07T09:57:37.121Z,98317.81
2019-02-07T10:00:34.270Z,98315.44
2019-02-07T10:03:27.838Z,98311.36
2019-02-07T10:06:19.364Z,98310.64
2019-02-07T10:09:08.426Z,98311.09
2019-02-07T10:12:05.326Z,98316.13
2019-02-07T10:14:55.441Z,98307.77
2019-02-07T10:18:04.835Z,98311.25
2019-02-07T10:20:54.271Z,98315.29
2019-02-07T10:23:44.130Z,98300.42
2019-02-07T10:26:32.200Z,98290.00
2019-02-07T10:29:32.198Z,98283.86
2019-02-07T10:32:29.388Z,98282.96
2019-02-07T10:35:22.828Z,98281.00
2019-02-07T10:38:22.319Z,98282.80
2019-02-07T10:41:26.018Z,98267.32
2019-02-07T10:44:08.118Z,98267.95
2019-02-07T10:46:59.065Z,98271.27
2019-02-07T10:49:58.649Z,98267.30
2019-02-07T10:52:40.869Z,98266.72
2019-02-07T10:55:30.904Z,98261.13
2019-02-07T10:58:25.689Z,98261.44
2019-02-07T11:01:23.101Z,98244.97
2019-02-07T11:04:10.552Z,98240.77
2019-02-07T11:06:51.479Z,98236.27
2019-02-07T11:09:48.959Z,98227.47
2019-02-07T11:12:39.974Z,98225.63
2019-02-07T11:15:26.267Z,98232.16
2019-02-07T11:18:16.006Z,98219.33
2019-02-07T11:21:05.863Z,98217.08
2019-02-07T11:24:16.964Z,98208.51
2019-02-07T11:27:14.027Z,98207.39
2019-02-07T11:30:03.864Z,98205.59
2019-02-07T11:32:51.378Z,98197.47
2019-02-07T11:35:42.907Z,98198.61
2019-02-07T11:38:35.628Z,98200.30
2019-02-07T11:41:36.904Z,98207.47
2019-02-07T11:44:30.904Z,98213.88
2019-02-07T11:47:27.943Z,98209.42
2019-02-07T11:50:37.333Z,98209.60
2019-02-07T11:53:31.792Z,98203.34
2019-02-07T11:56:22.974Z,98198.03
2019-02-07T11:59:17.152Z,98202.80
2019-02-07T12:02:09.205Z,98200.30
2019-02-07T12:05:12.284Z,98199.44
2019-02-07T12:07:58.960Z,98191.05
2019-02-07T12:11:05.387Z,98182.55
2019-02-07T12:13:49.410Z,98184.22
2019-02-07T12:16:49.716Z,98177.33
2019-02-07T12:19:37.314Z,98170.73
2019-02-07T12:22:17.288Z,98164.30
2019-02-07T12:25:17.068Z,98168.96
2019-02-07T12:28:07.032Z,98155.89
2019-02-07T12:30:56.905Z,98157.73
2019-02-07T12:34:00.318Z,98172.86
2019-02-07T12:36:45.448Z,98146.16
2019-02-07T12:39:24.681Z,98159.53
2019-02-07T12:42:05.429Z,98149.63
2019-02-07T12:45:00.641Z,98141.42
2019-02-07T12:48:06.707Z,98154.00
2019-02-07T12:51:02.856Z,98139.44
2019-02-07T12:53:48.246Z,98145.41
2019-02-07T12:56:35.700Z,98142.50
2019-02-07T12:59:34.764Z,98131.38
2019-02-07T13:02:41.999Z,98129.62
2019-02-07T13:05:39.707Z,98138.86
2019-02-07T13:08:33.717Z,98146.17
2019-02-07T13:11:25.436Z,98148.87
2019-02-07T13:14:04.764Z,98144.11
2019-02-07T13:16:57.063Z,98139.16
2019-02-07T13:19:42.676Z,98138.68
2019-02-07T13:22:32.754Z,98146.21
2019-02-07T13:25:22.818Z,98145.38
2019-02-07T13:28:23.234Z,98133.64
2019-02-07T13:31:09.556Z,98133.37
2019-02-07T13:34:06.866Z,98140.34
2019-02-07T13:36:57.901Z,98146.54
2019-02-07T13:39:57.292Z,98140.46
2019-02-07T13:42:40.522Z,98126.19
2019-02-07T13:45:30.795Z,98134.13
2019-02-07T13:48:31.033Z,98130.78
2019-02-07T13:51:21.039Z,98126.48
2019-02-07T13:54:12.083Z,98132.08
2019-02-07T13:57:11.915Z,98137.75
2019-02-07T14:00:23.410Z,98143.59
2019-02-07T14:03:14.100Z,98146.42
2019-02-07T14:06:20.174Z,98144.48
2019-02-07T14:09:17.904Z,98142.64
2019-02-07T14:12:18.596Z,98143.28
2019-02-07T14:15:08.714Z,98145.80
2019-02-07T14:18:08.728Z,98152.31
2019-02-07T14:21:03.295Z,98148.20
2019-02-07T14:23:51.776Z,98143.73
2019-02-07T14:26:57.972Z,98144.85
2019-02-07T14:29:39.424Z,98148.20
2019-02-07T14:32:37.185Z,98147.30
2019-02-07T14:35:29.135Z,98141.58
2019-02-07T14:38:18.010Z,98146.88
2019-02-07T14:41:12.026Z,98144.85
2019-02-07T14:44:03.243Z,98140.57
2019-02-07T14:46:48.302Z,98139.25
2019-02-07T14:49:20.789Z,98142.03
2019-02-07T14:51:53.146Z,98133.63
2019-02-07T14:54:25.216Z,98135.69
2019-02-07T14:56:57.282Z,98134.21
2019-02-07T14:59:29.937Z,98139.05
2019-02-07T15:02:02.263Z,98139.44
2019-02-07T15:04:35.181Z,98143.63
2019-02-07T15:07:07.898Z,98131.22
2019-02-07T15:09:40.255Z,98140.27
2019-02-07T15:12:12.743Z,98133.43
2019-02-07T15:14:45.408Z,98125.40
2019-02-07T15:17:18.042Z,98133.53
2019-02-07T15:19:50.544Z,98132.33
2019-02-07T15:22:24.550Z,98129.52
2019-02-07T15:24:56.910Z,98131.94
2019-02-07T15:27:28.973Z,98136.94
2019-02-07T15:30:01.049Z,98133.41
2019-02-07T15:32:33.127Z,98130.31
2019-02-07T15:35:08.009Z,98127.89
2019-02-07T15:37:40.106Z,98128.45
2019-02-07T15:40:17.151Z,98129.40
2019-02-07T15:42:49.346Z,98129.11
2019-02-07T15:45:22.389Z,98133.09
2019-02-07T15:47:54.741Z,98134.14
2019-02-07T15:50:37.570Z,98134.95
2019-02-07T15:53:02.244Z,98138.88
2019-02-07T15:55:34.409Z,98141.40
2019-02-07T15:58:06.961Z,98143.09
2019-02-07T16:00:51.383Z,98141.89
2019-02-07T16:03:48.805Z,98142.80
2019-02-07T16:06:20.933Z,98142.34
2019-02-07T16:08:53.064Z,98144.96
2019-02-07T16:11:25.128Z,98151.50
2019-02-07T16:13:57.591Z,98151.86
2019-02-07T16:16:30.013Z,98155.94
2019-02-07T16:19:02.381Z,98160.81
2019-02-07T16:21:34.426Z,98162.02
2019-02-07T16:24:07.342Z,98165.09
2019-02-07T16:26:39.693Z,98159.51
2019-02-07T16:29:12.544Z,98158.10
2019-02-07T16:31:44.887Z,98158.10
2019-02-07T16:34:18.876Z,98152.88
2019-02-07T16:36:51.563Z,98163.23
2019-02-07T16:39:25.405Z,98161.47
2019-02-07T16:42:05.843Z,98158.76
2019-02-07T16:44:32.080Z,98157.05
2019-02-07T16:47:04.773Z,98154.08
2019-02-07T16:49:37.158Z,98149.70
2019-02-07T16:52:09.205Z,98155.03
2019-02-07T16:54:41.697Z,98160.52
2019-02-07T16:57:14.418Z,98164.34
2019-02-07T16:59:46.483Z,98156.95
2019-02-07T17:02:19.100Z,98168.62
2019-02-07T17:04:51.166Z,98171.05
2019-02-07T17:07:23.311Z,98167.13
2019-02-07T17:09:56.183Z,98167.52
2019-02-07T17:12:28.524Z,98166.11
2019-02-07T17:15:00.691Z,98168.05
2019-02-07T17:17:38.151Z,98171.05
2019-02-07T17:20:17.998Z,98170.11
2019-02-07T17:22:50.044Z,98176.05
2019-02-07T17:25:22.531Z,98186.22
2019-02-07T17:27:54.977Z,98179.78
2019-02-07T17:30:27.837Z,98179.23
2019-02-07T17:33:00.309Z,98180.80
2019-02-07T17:35:32.868Z,98176.52
2019-02-07T17:38:08.663Z,98183.41
2019-02-07T17:40:40.041Z,98182.41
2019-02-07T17:43:12.549Z,98188.74
2019-02-07T17:45:44.744Z,98180.50
2019-02-07T17:48:16.785Z,98189.66
2019-02-07T17:50:49.298Z,98189.66
2019-02-07T17:53:22.196Z,98190.05
2019-02-07T17:55:54.865Z,98196.50
2019-02-07T17:58:26.966Z,98195.64
2019-02-07T18:01:05.672Z,98199.47
2019-02-07T18:03:37.943Z,98206.83
2019-02-07T18:06:11.657Z,98209.73
2019-02-07T18:08:43.957Z,98208.89
2019-02-07T18:11:16.654Z,98208.53
2019-02-07T18:13:49.312Z,98206.83
2019-02-07T18:16:21.718Z,98214.68
2019-02-07T18:18:54.435Z,98205.16
2019-02-07T18:21:33.963Z,98207.12
2019-02-07T18:24:00.290Z,98209.45
2019-02-07T18:26:33.097Z,98214.68
2019-02-07T18:29:05.659Z,98225.80
2019-02-07T18:31:38.283Z,98224.49
2019-02-07T18:34:10.414Z,98227.01
2019-02-07T18:36:42.627Z,98234.50
2019-02-07T18:39:15.241Z,98232.80
2019-02-07T18:41:48.042Z,98234.47
2019-02-07T18:44:20.492Z,98244.18
2019-02-07T18:46:53.303Z,98243.33
2019-02-07T18:49:26.795Z,98239.86
2019-02-07T18:51:59.223Z,98241.17
2019-02-07T18:54:31.891Z,98244.73
2019-02-07T18:57:04.751Z,98249.97
2019-02-07T18:59:37.438Z,98268.19
2019-02-07T19:02:10.137Z,98277.48
2019-02-07T19:04:42.645Z,98277.28
2019-02-07T19:07:15.413Z,98281.11
2019-02-07T19:09:48.259Z,98295.20
2019-02-07T19:12:21.231Z,98288.66
2019-02-07T19:14:53.996Z,98291.94
2019-02-07T19:17:26.652Z,98292.50
2019-02-07T19:19:59.628Z,98287.09
2019-02-07T19:22:32.015Z,98291.20
2019-02-07T19:25:04.449Z,98290.36
2019-02-07T19:27:36.798Z,98294.37
2019-02-07T19:30:17.481Z,98294.87
2019-02-07T19:32:49.808Z,98292.27
2019-02-07T19:35:22.206Z,98299.55
2019-02-07T19:37:54.734Z,98306.85
2019-02-07T19:40:27.082Z,98309.07
2019-02-07T19:43:00.199Z,98317.52
2019-02-07T19:45:33.044Z,98319.73
2019-02-07T19:48:05.791Z,98321.81
2019-02-07T19:50:38.208Z,98321.23
2019-02-07T19:53:11.265Z,98320.60
2019-02-07T19:55:42.518Z,98310.23
2019-02-07T19:58:14.516Z,98308.17
2019-02-07T20:00:46.722Z,98304.72
2019-02-07T20:03:19.146Z,98308.37
2019-02-07T20:05:51.429Z,98309.13
2019-02-07T20:08:24.336Z,98310.68
2019-02-07T20:10:57.324Z,98312.28
2019-02-07T20:13:29.699Z,98313.20
2019-02-07T20:16:02.132Z,98319.02
2019-02-07T20:18:34.850Z,98325.74
2019-02-07T20:21:07.539Z,98325.64
2019-02-07T20:23:40.012Z,98324.70
2019-02-07T20:26:12.616Z,98338.08
2019-02-07T20:28:44.969Z,98341.44
2019-02-07T20:31:17.117Z,98346.84
2019-02-07T20:33:50.189Z,98348.88
2019-02-07T20:36:22.541Z,98345.16
2019-02-07T20:38:55.350Z,98344.48
2019-02-07T20:41:27.737Z,98347.69
2019-02-07T20:44:00.180Z,98349.81
2019-02-07T20:46:33.291Z,98338.05
2019-02-07T20:49:05.838Z,98342.42
2019-02-07T20:51:38.625Z,98347.95
2019-02-07T20:54:10.997Z,98346.37
2019-02-07T20:56:43.710Z,98345.52
2019-02-07T20:59:16.243Z,98347.83
2019-02-07T21:01:48.453Z,98353.09
2019-02-07T21:04:20.934Z,98351.20
2019-02-07T21:06:53.569Z,98351.20
2019-02-07T21:09:25.976Z,98353.91
2019-02-07T21:11:58.794Z,98360.62
2019-02-07T21:14:31.122Z,98360.22
2019-02-07T21:17:03.820Z,98364.91
2019-02-07T21:19:36.173Z,98364.98
2019-02-07T21:22:45.455Z,98368.45
2019-02-07T21:25:22.814Z,98374.80
2019-02-07T21:27:54.983Z,98370.19
2019-02-07T21:30:30.432Z,98382.23
2019-02-07T21:33:02.559Z,98390.67
2019-02-07T21:35:34.640Z,98388.08
2019-02-07T21:38:07.406Z,98391.81
2019-02-07T21:40:39.918Z,98393.13
2019-02-07T21:43:12.520Z,98391.39
2019-02-07T21:45:44.913Z,98398.50
2019-02-07T21:48:16.994Z,98390.83
2019-02-07T21:50:49.087Z,98402.41
2019-02-07T21:53:21.234Z,98399.55
2019-02-07T21:55:53.773Z,98399.28
2019-02-07T21:58:26.195Z,98392.22
2019-02-07T22:00:58.901Z,98398.16
2019-02-07T22:03:31.548Z,98398.56
2019-02-07T22:06:03.930Z,98403.55
2019-02-07T22:08:36.077Z,98397.06
2019-02-07T22:11:08.434Z,98394.14
2019-02-07T22:13:40.684Z,98401.18
2019-02-07T22:16:13.036Z,98393.22
2019-02-07T22:18:45.139Z,98400.28
2019-02-07T22:21:17.894Z,98408.95
2019-02-07T22:23:50.030Z,98407.09
2019-02-07T22:26:22.107Z,98411.46
2019-02-07T22:28:54.543Z,98410.81
2019-02-07T22:31:27.243Z,98416.20
2019-02-07T22:33:59.823Z,98420.78
2019-02-07T22:36:31.888Z,98416.36
2019-02-07T22:39:06.541Z,98422.09
2019-02-07T22:41:38.591Z,98427.66
2019-02-07T22:44:10.694Z,98430.72
2019-02-07T22:46:42.793Z,98437.63
2019-02-07T22:49:14.840Z,98438.53
2019-02-07T22:51:46.908Z,98439.59
2019-02-07T22:54:19.054Z,98441.94
2019-02-07T22:56:51.472Z,98441.52
2019-02-07T22:59:23.936Z,98437.87
2019-02-07T23:01:58.545Z,98444.04
2019-02-07T23:04:31.643Z,98445.21
2019-02-07T23:07:03.693Z,98453.13
2019-02-07T23:09:36.298Z,98454.52
2019-02-07T23:12:08.770Z,98452.75
2019-02-07T23:14:41.120Z,98456.42
2019-02-07T23:17:13.160Z,98451.83
2019-02-07T23:19:45.341Z,98458.58
2019-02-07T23:22:18.157Z,98457.63
2019-02-07T23:24:50.569Z,98458.36
2019-02-07T23:27:23.023Z,98460.22
2019-02-07T23:29:55.484Z,98458.78
2019-02-07T23:32:27.883Z,98451.88
2019-02-07T23:35:00.265Z,98459.39
2019-02-07T23:37:32.979Z,98446.84
2019-02-07T23:40:07.097Z,98450.51
2019-02-07T23:42:39.252Z,98464.53
2019-02-07T23:45:12.067Z,98464.05
2019-02-07T23:47:44.482Z,98466.73
2019-02-07T23:50:17.140Z,98468.45
2019-02-07T23:52:49.618Z,98469.52
2019-02-07T23:55:21.971Z,98471.81
2019-02-07T23:57:54.276Z,98468.67
